sensor_id;sensor_type;location;lat;lon;timestamp;pressure;altitude;pressure_sealevel;temperature;humidity
1480;BME280;732;51.698;4.886;2022-12-29T00:00:46;100144.25;;;8.63;100.00
1480;BME280;732;51.698;4.886;2022-12-29T00:03:24;100135.50;;;8.53;100.00
1480;BME280;732;51.698;4.886;2022-12-29T00:05:57;100129.41;;;8.46;100.00
1480;BME280;732;51.698;4.886;2022-12-29T00:08:29;100127.66;;;8.56;100.00
1480;BME280;732;51.698;4.886;2022-12-29T00:11:17;100117.19;;;8.45;100.00
1480;BME280;732;51.698;4.886;2022-12-29T00:13:49;100117.19;;;8.56;100.00
1480;BME280;732;51.698;4.886;2022-12-29T00:16:35;100006.31;;;8.04;100.00
1480;BME280;732;51.698;4.886;2022-12-29T00:19:09;100099.69;;;8.55;100.00
1480;BME280;732;51.698;4.886;2022-12-29T00:22:01;100083.97;;;8.54;100.00
1480;BME280;732;51.698;4.886;2022-12-29T00:24:50;100094.50;;;8.49;100.00
1480;BME280;732;51.698;4.886;2022-12-29T00:27:40;100085.75;;;8.48;100.00
1480;BME280;732;51.698;4.886;2022-12-29T00:30:36;100087.47;;;8.48;100.00
1480;BME280;732;51.698;4.886;2022-12-29T00:33:28;100051.69;;;8.30;100.00
1480;BME280;732;51.698;4.886;2022-12-29T00:36:21;100077.03;;;8.39;100.00
1480;BME280;732;51.698;4.886;2022-12-29T00:38:55;100064.81;;;8.32;100.00
1480;BME280;732;51.698;4.886;2022-12-29T00:41:44;100068.28;;;8.40;100.00
1480;BME280;732;51.698;4.886;2022-12-29T00:44:30;100049.94;;;8.32;100.00
1480;BME280;732;51.698;4.886;2022-12-29T00:46:59;100070.91;;;8.23;100.00
1480;BME280;732;51.698;4.886;2022-12-29T00:49:31;100070.06;;;8.05;100.00
1480;BME280;732;51.698;4.886;2022-12-29T00:52:04;100077.94;;;8.03;100.00
1480;BME280;732;51.698;4.886;2022-12-29T00:54:35;100063.06;;;7.95;100.00
1480;BME280;732;51.698;4.886;2022-12-29T00:57:06;100063.06;;;8.01;100.00
1480;BME280;732;51.698;4.886;2022-12-29T00:59:35;100064.81;;;7.99;100.00
1480;BME280;732;51.698;4.886;2022-12-29T01:02:04;100008.13;;;7.72;100.00
1480;BME280;732;51.698;4.886;2022-12-29T01:04:34;100029.91;;;7.94;100.00
1480;BME280;732;51.698;4.886;2022-12-29T01:07:04;100031.66;;;7.90;100.00
1480;BME280;732;51.698;4.886;2022-12-29T01:09:33;100062.22;;;8.09;100.00
1480;BME280;732;51.698;4.886;2022-12-29T01:12:19;100057.84;;;8.08;100.00
1480;BME280;732;51.698;4.886;2022-12-29T01:15:12;100073.56;;;8.08;100.00
1480;BME280;732;51.698;4.886;2022-12-29T01:17:41;100070.94;;;8.20;100.00
1480;BME280;732;51.698;4.886;2022-12-29T01:20:12;100049.97;;;8.01;100.00
1480;BME280;732;51.698;4.886;2022-12-29T01:22:42;100056.97;;;8.09;100.00
1480;BME280;732;51.698;4.886;2022-12-29T01:25:10;100030.81;;;7.94;100.00
1480;BME280;732;51.698;4.886;2022-12-29T01:27:40;100052.63;;;8.04;100.00
1480;BME280;732;51.698;4.886;2022-12-29T01:30:12;100072.69;;;8.06;100.00
1480;BME280;732;51.698;4.886;2022-12-29T01:32:40;100093.63;;;8.05;100.00
1480;BME280;732;51.698;4.886;2022-12-29T01:35:09;100066.56;;;7.97;100.00
1480;BME280;732;51.698;4.886;2022-12-29T01:37:38;100070.94;;;7.99;100.00
1480;BME280;732;51.698;4.886;2022-12-29T01:40:09;100068.31;;;7.99;100.00
1480;BME280;732;51.698;4.886;2022-12-29T01:42:38;100061.34;;;7.94;100.00
1480;BME280;732;51.698;4.886;2022-12-29T01:45:11;100066.56;;;7.89;100.00
1480;BME280;732;51.698;4.886;2022-12-29T01:47:43;100084.03;;;7.93;100.00
1480;BME280;732;51.698;4.886;2022-12-29T01:50:17;100077.03;;;7.80;100.00
1480;BME280;732;51.698;4.886;2022-12-29T01:52:56;100056.03;;;7.51;100.00
1480;BME280;732;51.698;4.886;2022-12-29T01:55:29;100068.31;;;7.66;100.00
1480;BME280;732;51.698;4.886;2022-12-29T01:58:02;100073.53;;;7.71;100.00
1480;BME280;732;51.698;4.886;2022-12-29T02:00:33;100096.25;;;7.72;100.00
1480;BME280;732;51.698;4.886;2022-12-29T02:03:01;100098.88;;;7.79;100.00
1480;BME280;732;51.698;4.886;2022-12-29T02:05:36;100091.00;;;7.78;100.00
1480;BME280;732;51.698;4.886;2022-12-29T02:08:06;100079.69;;;7.83;100.00
1480;BME280;732;51.698;4.886;2022-12-29T02:10:38;100086.66;;;7.90;100.00
1480;BME280;732;51.698;4.886;2022-12-29T02:13:07;100068.31;;;7.75;100.00
1480;BME280;732;51.698;4.886;2022-12-29T02:15:47;100077.03;;;7.77;100.00
1480;BME280;732;51.698;4.886;2022-12-29T02:18:32;100073.53;;;7.80;100.00
1480;BME280;732;51.698;4.886;2022-12-29T02:21:56;100058.72;;;7.73;100.00
1480;BME280;732;51.698;4.886;2022-12-29T02:27:57;100072.66;;;7.69;100.00
1480;BME280;732;51.698;4.886;2022-12-29T02:30:51;100079.66;;;7.71;100.00
1480;BME280;732;51.698;4.886;2022-12-29T02:33:38;100065.69;;;7.66;100.00
1480;BME280;732;51.698;4.886;2022-12-29T02:36:20;100099.72;;;7.77;100.00
1480;BME280;732;51.698;4.886;2022-12-29T02:39:02;100068.25;;;7.62;100.00
1480;BME280;732;51.698;4.886;2022-12-29T02:41:38;100075.22;;;7.53;100.00
1480;BME280;732;51.698;4.886;2022-12-29T02:44:15;100063.00;;;7.48;100.00
1480;BME280;732;51.698;4.886;2022-12-29T02:46:53;100083.06;;;7.50;100.00
1480;BME280;732;51.698;4.886;2022-12-29T02:49:30;100022.88;;;7.38;100.00
1480;BME280;732;51.698;4.886;2022-12-29T02:52:04;100065.69;;;7.68;100.00
1480;BME280;732;51.698;4.886;2022-12-29T02:54:34;100075.28;;;7.72;100.00
1480;BME280;732;51.698;4.886;2022-12-29T02:57:12;100046.44;;;7.53;100.00
1480;BME280;732;51.698;4.886;2022-12-29T02:59:45;100049.94;;;7.62;100.00
1480;BME280;732;51.698;4.886;2022-12-29T03:02:48;100055.16;;;7.54;100.00
1480;BME280;732;51.698;4.886;2022-12-29T03:05:43;100052.53;;;7.48;100.00
1480;BME280;732;51.698;4.886;2022-12-29T03:08:27;100060.38;;;7.46;100.00
1480;BME280;732;51.698;4.886;2022-12-29T03:11:02;100060.44;;;7.57;100.00
1480;BME280;732;51.698;4.886;2022-12-29T03:13:42;100023.75;;;7.34;100.00
1480;BME280;732;51.698;4.886;2022-12-29T03:16:35;100041.16;;;7.31;100.00
1480;BME280;732;51.698;4.886;2022-12-29T03:19:13;100046.41;;;7.29;100.00
1480;BME280;732;51.698;4.886;2022-12-29T03:21:50;100049.91;;;7.39;100.00
1480;BME280;732;51.698;4.886;2022-12-29T03:24:44;100021.09;;;7.13;100.00
1480;BME280;732;51.698;4.886;2022-12-29T03:27:21;100050.75;;;7.26;100.00
1480;BME280;732;51.698;4.886;2022-12-29T03:29:54;100056.84;;;7.22;100.00
1480;BME280;732;51.698;4.886;2022-12-29T03:32:29;100062.09;;;7.25;100.00
1480;BME280;732;51.698;4.886;2022-12-29T03:35:01;100022.78;;;7.08;100.00
1480;BME280;732;51.698;4.886;2022-12-29T03:37:34;100034.19;;;7.21;100.00
1480;BME280;732;51.698;4.886;2022-12-29T03:40:06;100055.13;;;7.31;100.00
1480;BME280;732;51.698;4.886;2022-12-29T03:42:37;100067.34;;;7.38;100.00
1480;BME280;732;51.698;4.886;2022-12-29T03:45:09;100055.13;;;7.39;100.00
1480;BME280;732;51.698;4.886;2022-12-29T03:47:38;100062.97;;;7.40;100.00
1480;BME280;732;51.698;4.886;2022-12-29T03:50:08;100062.13;;;7.40;100.00
1480;BME280;732;51.698;4.886;2022-12-29T03:52:39;100047.31;;;7.46;100.00
1480;BME280;732;51.698;4.886;2022-12-29T03:55:09;100035.94;;;7.37;100.00
1480;BME280;732;51.698;4.886;2022-12-29T03:57:39;100052.50;;;7.21;100.00
1480;BME280;732;51.698;4.886;2022-12-29T04:00:12;100054.19;;;7.16;100.00
1480;BME280;732;51.698;4.886;2022-12-29T04:02:41;100056.78;;;7.07;100.00
1480;BME280;732;51.698;4.886;2022-12-29T04:05:16;100044.53;;;6.91;100.00
1480;BME280;732;51.698;4.886;2022-12-29T04:07:45;100055.91;;;7.02;100.00
1480;BME280;732;51.698;4.886;2022-12-29T04:10:14;100058.53;;;6.99;100.00
1480;BME280;732;51.698;4.886;2022-12-29T04:12:43;100068.06;;;6.91;100.00
1480;BME280;732;51.698;4.886;2022-12-29T04:15:14;100080.25;;;6.86;100.00
1480;BME280;732;51.698;4.886;2022-12-29T04:17:44;100077.66;;;6.86;100.00
1480;BME280;732;51.698;4.886;2022-12-29T04:20:13;100072.44;;;6.93;100.00
1480;BME280;732;51.698;4.886;2022-12-29T04:23:03;100061.97;;;6.87;100.00
1480;BME280;732;51.698;4.886;2022-12-29T04:25:34;100072.41;;;6.86;100.00
1480;BME280;732;51.698;4.886;2022-12-29T04:28:03;100065.38;;;6.80;100.00
1480;BME280;732;51.698;4.886;2022-12-29T04:30:50;100064.50;;;6.71;100.00
1480;BME280;732;51.698;4.886;2022-12-29T04:33:24;100043.47;;;6.49;100.00
1480;BME280;732;51.698;4.886;2022-12-29T04:35:53;100080.09;;;6.62;100.00
1480;BME280;732;51.698;4.886;2022-12-29T04:38:24;100066.94;;;6.42;100.00
1480;BME280;732;51.698;4.886;2022-12-29T04:40:53;100080.91;;;6.47;100.00
1480;BME280;732;51.698;4.886;2022-12-29T04:43:23;100074.78;;;6.45;100.00
1480;BME280;732;51.698;4.886;2022-12-29T04:46:10;100052.91;;;6.22;100.00
1480;BME280;732;51.698;4.886;2022-12-29T04:48:52;100077.34;;;6.36;100.00
1480;BME280;732;51.698;4.886;2022-12-29T04:51:44;100085.19;;;6.39;100.00
1480;BME280;732;51.698;4.886;2022-12-29T04:54:16;100079.13;;;6.41;100.00
1480;BME280;732;51.698;4.886;2022-12-29T04:56:49;100069.56;;;6.43;100.00
1480;BME280;732;51.698;4.886;2022-12-29T04:59:18;100089.53;;;6.37;100.00
1480;BME280;732;51.698;4.886;2022-12-29T05:01:49;100071.28;;;6.44;100.00
1480;BME280;732;51.698;4.886;2022-12-29T05:04:18;100073.06;;;6.47;100.00
1480;BME280;732;51.698;4.886;2022-12-29T05:06:47;100076.56;;;6.52;100.00
1480;BME280;732;51.698;4.886;2022-12-29T05:09:17;100076.56;;;6.46;100.00
1480;BME280;732;51.698;4.886;2022-12-29T05:11:46;100083.50;;;6.44;100.00
1480;BME280;732;51.698;4.886;2022-12-29T05:14:15;100080.94;;;6.50;100.00
1480;BME280;732;51.698;4.886;2022-12-29T05:16:44;100076.59;;;6.59;100.00
1480;BME280;732;51.698;4.886;2022-12-29T05:19:13;100087.09;;;6.63;100.00
1480;BME280;732;51.698;4.886;2022-12-29T05:21:42;100082.75;;;6.66;100.00
1480;BME280;732;51.698;4.886;2022-12-29T05:24:11;100087.09;;;6.64;100.00
1480;BME280;732;51.698;4.886;2022-12-29T05:26:42;100090.63;;;6.71;100.00
1480;BME280;732;51.698;4.886;2022-12-29T05:29:30;100102.81;;;6.70;100.00
1480;BME280;732;51.698;4.886;2022-12-29T05:31:59;100095.81;;;6.69;100.00
1480;BME280;732;51.698;4.886;2022-12-29T05:34:28;100075.72;;;6.54;100.00
1480;BME280;732;51.698;4.886;2022-12-29T05:36:57;100112.38;;;6.65;100.00
1480;BME280;732;51.698;4.886;2022-12-29T05:39:25;100111.50;;;6.65;100.00
1480;BME280;732;51.698;4.886;2022-12-29T05:41:59;100065.16;;;6.38;100.00
1480;BME280;732;51.698;4.886;2022-12-29T05:44:47;100111.50;;;6.63;100.00
1480;BME280;732;51.698;4.886;2022-12-29T05:47:26;100110.66;;;6.70;100.00
1480;BME280;732;51.698;4.886;2022-12-29T05:50:08;100103.75;;;6.78;100.00
1480;BME280;732;51.698;4.886;2022-12-29T05:53:06;100115.09;;;6.82;100.00
1480;BME280;732;51.698;4.886;2022-12-29T05:55:36;100102.06;;;6.89;100.00
1480;BME280;732;51.698;4.886;2022-12-29T05:58:14;100105.56;;;6.94;100.00
1480;BME280;732;51.698;4.886;2022-12-29T06:00:43;100097.75;;;7.05;100.00
1480;BME280;732;51.698;4.886;2022-12-29T06:03:12;100061.97;;;6.92;100.00
1480;BME280;732;51.698;4.886;2022-12-29T06:05:41;100096.03;;;7.10;100.00
1480;BME280;732;51.698;4.886;2022-12-29T06:08:09;100097.78;;;7.12;100.00
1480;BME280;732;51.698;4.886;2022-12-29T06:10:38;100067.19;;;6.86;100.00
1480;BME280;732;51.698;4.886;2022-12-29T06:13:07;100092.50;;;7.05;100.00
1480;BME280;732;51.698;4.886;2022-12-29T06:15:41;100058.47;;;6.88;100.00
1480;BME280;732;51.698;4.886;2022-12-29T06:18:10;100082.06;;;7.03;100.00
1480;BME280;732;51.698;4.886;2022-12-29T06:20:46;100084.69;;;7.06;100.00
1480;BME280;732;51.698;4.886;2022-12-29T06:23:17;100091.63;;;7.01;100.00
1480;BME280;732;51.698;4.886;2022-12-29T06:25:47;100079.34;;;6.82;100.00
1480;BME280;732;51.698;4.886;2022-12-29T06:28:16;100101.22;;;6.99;100.00
1480;BME280;732;51.698;4.886;2022-12-29T06:30:47;100098.66;;;7.10;100.00
1480;BME280;732;51.698;4.886;2022-12-29T06:33:17;100085.53;;;6.98;100.00
1480;BME280;732;51.698;4.886;2022-12-29T06:35:45;100104.72;;;7.09;100.00
1480;BME280;732;51.698;4.886;2022-12-29T06:38:14;100084.69;;;7.09;100.00
1480;BME280;732;51.698;4.886;2022-12-29T06:40:43;100081.13;;;6.95;100.00
1480;BME280;732;51.698;4.886;2022-12-29T06:43:31;100098.66;;;7.10;100.00
1480;BME280;732;51.698;4.886;2022-12-29T06:46:09;100081.13;;;6.95;100.00
1480;BME280;732;51.698;4.886;2022-12-29T06:48:38;100107.34;;;7.07;100.00
1480;BME280;732;51.698;4.886;2022-12-29T06:51:09;100101.16;;;6.90;100.00
1480;BME280;732;51.698;4.886;2022-12-29T06:53:37;100116.00;;;6.96;100.00
1480;BME280;732;51.698;4.886;2022-12-29T06:56:06;100124.78;;;7.04;100.00
1480;BME280;732;51.698;4.886;2022-12-29T06:58:35;100135.22;;;7.08;100.00
1480;BME280;732;51.698;4.886;2022-12-29T07:01:03;100131.69;;;6.94;100.00
1480;BME280;732;51.698;4.886;2022-12-29T07:03:33;100144.84;;;7.09;100.00
1480;BME280;732;51.698;4.886;2022-12-29T07:06:02;100146.56;;;7.09;100.00
1480;BME280;732;51.698;4.886;2022-12-29T07:08:30;100147.44;;;7.06;100.00
1480;BME280;732;51.698;4.886;2022-12-29T07:10:59;100147.44;;;7.06;100.00
1480;BME280;732;51.698;4.886;2022-12-29T07:13:28;100107.28;;;6.89;100.00
1480;BME280;732;51.698;4.886;2022-12-29T07:15:57;100146.53;;;6.98;100.00
1480;BME280;732;51.698;4.886;2022-12-29T07:18:25;100148.22;;;6.92;100.00
1480;BME280;732;51.698;4.886;2022-12-29T07:20:55;100136.88;;;6.84;100.00
1480;BME280;732;51.698;4.886;2022-12-29T07:23:23;100141.13;;;6.71;100.00
1480;BME280;732;51.698;4.886;2022-12-29T07:26:00;100125.44;;;6.68;100.00
1480;BME280;732;51.698;4.886;2022-12-29T07:28:29;100114.97;;;6.62;100.00
1480;BME280;732;51.698;4.886;2022-12-29T07:30:58;100138.50;;;6.68;100.00
1480;BME280;732;51.698;4.886;2022-12-29T07:33:28;100130.63;;;6.59;100.00
1480;BME280;732;51.698;4.886;2022-12-29T07:35:59;100135.81;;;6.53;100.00
1480;BME280;732;51.698;4.886;2022-12-29T07:38:27;100140.25;;;6.65;100.00
1480;BME280;732;51.698;4.886;2022-12-29T07:40:59;100154.19;;;6.65;100.00
1480;BME280;732;51.698;4.886;2022-12-29T07:43:27;100117.47;;;6.42;100.00
1480;BME280;732;51.698;4.886;2022-12-29T07:46:20;100137.53;;;6.51;100.00
1480;BME280;732;51.698;4.886;2022-12-29T07:49:09;100146.25;;;6.53;100.00
1480;BME280;732;51.698;4.886;2022-12-29T07:51:39;100174.25;;;6.74;100.00
1480;BME280;732;51.698;4.886;2022-12-29T07:54:08;100167.31;;;6.77;100.00
1480;BME280;732;51.698;4.886;2022-12-29T07:56:37;100175.22;;;6.86;100.00
1480;BME280;732;51.698;4.886;2022-12-29T07:59:05;100162.97;;;6.78;100.00
1480;BME280;732;51.698;4.886;2022-12-29T08:01:33;100166.47;;;6.84;100.00
1480;BME280;732;51.698;4.886;2022-12-29T08:04:02;100135.03;;;6.69;100.00
1480;BME280;732;51.698;4.886;2022-12-29T08:06:31;100109.63;;;6.47;100.00
1480;BME280;732;51.698;4.886;2022-12-29T08:09:01;100161.19;;;6.77;100.00
1480;BME280;732;51.698;4.886;2022-12-29T08:11:42;100167.34;;;6.83;100.00
1480;BME280;732;51.698;4.886;2022-12-29T08:14:11;100175.16;;;6.80;100.00
1480;BME280;732;51.698;4.886;2022-12-29T08:16:40;100179.63;;;6.95;100.00
1480;BME280;732;51.698;4.886;2022-12-29T08:19:10;100177.91;;;7.03;100.00
1480;BME280;732;51.698;4.886;2022-12-29T08:21:39;100136.88;;;6.85;100.00
1480;BME280;732;51.698;4.886;2022-12-29T08:24:09;100180.56;;;7.09;100.00
1480;BME280;732;51.698;4.886;2022-12-29T08:26:38;100165.75;;;7.06;100.00
1480;BME280;732;51.698;4.886;2022-12-29T08:29:07;100169.34;;;7.28;100.00
1480;BME280;732;51.698;4.886;2022-12-29T08:31:35;100150.09;;;7.15;100.00
1480;BME280;732;51.698;4.886;2022-12-29T08:34:04;100164.94;;;7.19;100.00
1480;BME280;732;51.698;4.886;2022-12-29T08:36:33;100172.72;;;7.10;100.00
1480;BME280;732;51.698;4.886;2022-12-29T08:39:01;100163.91;;;6.92;100.00
1480;BME280;732;51.698;4.886;2022-12-29T08:41:31;100178.84;;;7.06;100.00
1480;BME280;732;51.698;4.886;2022-12-29T08:43:59;100192.72;;;6.99;100.00
1480;BME280;732;51.698;4.886;2022-12-29T08:46:28;100179.69;;;7.02;100.00
1480;BME280;732;51.698;4.886;2022-12-29T08:48:56;100187.56;;;7.10;100.00
1480;BME280;732;51.698;4.886;2022-12-29T08:51:24;100156.06;;;6.92;100.00
1480;BME280;732;51.698;4.886;2022-12-29T08:53:53;100189.34;;;7.17;100.00
1480;BME280;732;51.698;4.886;2022-12-29T08:56:22;100184.94;;;7.16;100.00
1480;BME280;732;51.698;4.886;2022-12-29T08:58:55;100191.94;;;7.20;100.00
1480;BME280;732;51.698;4.886;2022-12-29T09:01:24;100168.25;;;6.88;100.00
1480;BME280;732;51.698;4.886;2022-12-29T09:03:54;100170.75;;;6.69;100.00
1480;BME280;732;51.698;4.886;2022-12-29T09:06:43;100211.94;;;7.06;100.00
1480;BME280;732;51.698;4.886;2022-12-29T09:09:12;100218.78;;;6.87;100.00
1480;BME280;732;51.698;4.886;2022-12-29T09:11:41;100232.63;;;6.74;100.00
1480;BME280;732;51.698;4.886;2022-12-29T09:14:13;100230.81;;;6.64;100.00
1480;BME280;732;51.698;4.886;2022-12-29T09:16:42;100228.13;;;6.55;100.00
1480;BME280;732;51.698;4.886;2022-12-29T09:19:27;100242.03;;;6.54;100.00
1480;BME280;732;51.698;4.886;2022-12-29T09:21:56;100260.31;;;6.54;100.00
1480;BME280;732;51.698;4.886;2022-12-29T09:24:24;100268.22;;;6.60;100.00
1480;BME280;732;51.698;4.886;2022-12-29T09:26:52;100289.03;;;6.49;100.00
1480;BME280;732;51.698;4.886;2022-12-29T09:29:23;100293.31;;;6.43;100.00
1480;BME280;732;51.698;4.886;2022-12-29T09:31:51;100290.53;;;6.26;100.00
1480;BME280;732;51.698;4.886;2022-12-29T09:34:20;100318.28;;;6.17;100.00
1480;BME280;732;51.698;4.886;2022-12-29T09:36:48;100327.03;;;6.20;100.00
1480;BME280;732;51.698;4.886;2022-12-29T09:39:17;100334.03;;;6.24;100.00
1480;BME280;732;51.698;4.886;2022-12-29T09:41:52;100315.34;;;5.91;100.00
1480;BME280;732;51.698;4.886;2022-12-29T09:44:43;100339.03;;;6.06;100.00
1480;BME280;732;51.698;4.886;2022-12-29T09:47:16;100356.44;;;6.09;100.00
1480;BME280;732;51.698;4.886;2022-12-29T09:49:49;100370.44;;;6.11;100.00
1480;BME280;732;51.698;4.886;2022-12-29T09:52:23;100376.31;;;5.96;100.00
1480;BME280;732;51.698;4.886;2022-12-29T09:54:59;100370.88;;;5.81;100.00
1480;BME280;732;51.698;4.886;2022-12-29T09:57:43;100381.44;;;5.89;100.00
1480;BME280;732;51.698;4.886;2022-12-29T10:00:20;100362.22;;;5.84;100.00
1480;BME280;732;51.698;4.886;2022-12-29T10:02:52;100359.47;;;5.73;100.00
1480;BME280;732;51.698;4.886;2022-12-29T10:05:31;100401.50;;;5.94;100.00
1480;BME280;732;51.698;4.886;2022-12-29T10:08:19;100397.16;;;5.93;100.00
1480;BME280;732;51.698;4.886;2022-12-29T10:10:54;100389.25;;;5.89;100.00
1480;BME280;732;51.698;4.886;2022-12-29T10:13:36;100413.75;;;6.00;100.00
1480;BME280;732;51.698;4.886;2022-12-29T10:16:12;100401.69;;;6.08;100.00
1480;BME280;732;51.698;4.886;2022-12-29T10:19:10;100386.91;;;6.07;100.00
1480;BME280;732;51.698;4.886;2022-12-29T10:21:59;100406.19;;;6.16;100.00
1480;BME280;732;51.698;4.886;2022-12-29T10:24:32;100423.81;;;6.34;100.00
1480;BME280;732;51.698;4.886;2022-12-29T10:27:03;100423.88;;;6.38;100.00
1480;BME280;732;51.698;4.886;2022-12-29T10:29:36;100428.38;;;6.50;100.00
1480;BME280;732;51.698;4.886;2022-12-29T10:32:15;100408.25;;;6.44;100.00
1480;BME280;732;51.698;4.886;2022-12-29T10:34:50;100436.44;;;6.71;100.00
1480;BME280;732;51.698;4.886;2022-12-29T10:37:34;100438.03;;;6.55;100.00
1480;BME280;732;51.698;4.886;2022-12-29T10:40:18;100441.69;;;6.73;100.00
1480;BME280;732;51.698;4.886;2022-12-29T10:42:52;100454.69;;;6.67;100.00
1480;BME280;732;51.698;4.886;2022-12-29T10:45:25;100457.97;;;6.49;100.00
1480;BME280;732;51.698;4.886;2022-12-29T10:48:01;100452.84;;;6.56;100.00
1480;BME280;732;51.698;4.886;2022-12-29T10:50:32;100445.72;;;6.46;100.00
1480;BME280;732;51.698;4.886;2022-12-29T10:53:04;100458.78;;;6.45;100.00
1480;BME280;732;51.698;4.886;2022-12-29T10:55:36;100454.41;;;6.42;100.00
1480;BME280;732;51.698;4.886;2022-12-29T10:58:07;100440.50;;;6.46;100.00
1480;BME280;732;51.698;4.886;2022-12-29T11:00:39;100458.16;;;6.66;100.00
1480;BME280;732;51.698;4.886;2022-12-29T11:03:35;100466.91;;;6.68;100.00
1480;BME280;732;51.698;4.886;2022-12-29T11:06:12;100453.84;;;6.69;100.00
1480;BME280;732;51.698;4.886;2022-12-29T11:08:48;100487.41;;;7.11;100.00
1480;BME280;732;51.698;4.886;2022-12-29T11:11:25;100485.81;;;7.25;100.00
1480;BME280;732;51.698;4.886;2022-12-29T11:14:01;100486.88;;;7.43;100.00
1480;BME280;732;51.698;4.886;2022-12-29T11:16:33;100476.13;;;7.13;100.00
1480;BME280;732;51.698;4.886;2022-12-29T11:19:04;100481.41;;;7.19;100.00
1480;BME280;732;51.698;4.886;2022-12-29T11:21:35;100459.53;;;7.13;100.00
1480;BME280;732;51.698;4.886;2022-12-29T11:24:22;100459.53;;;7.11;100.00
1480;BME280;732;51.698;4.886;2022-12-29T11:26:53;100488.38;;;7.17;100.00
1480;BME280;732;51.698;4.886;2022-12-29T11:29:27;100488.41;;;7.23;100.00
1480;BME280;732;51.698;4.886;2022-12-29T11:31:58;100479.69;;;7.24;100.00
1480;BME280;732;51.698;4.886;2022-12-29T11:34:32;100477.22;;;7.36;100.00
1480;BME280;732;51.698;4.886;2022-12-29T11:37:06;100474.41;;;7.20;100.00
1480;BME280;732;51.698;4.886;2022-12-29T11:39:41;100501.50;;;7.25;100.00
1480;BME280;732;51.698;4.886;2022-12-29T11:42:15;100470.00;;;7.14;100.00
1480;BME280;732;51.698;4.886;2022-12-29T11:44:47;100507.72;;;7.37;100.00
1480;BME280;732;51.698;4.886;2022-12-29T11:47:27;100490.25;;;7.33;100.00
1480;BME280;732;51.698;4.886;2022-12-29T11:50:01;100505.94;;;7.30;100.00
1480;BME280;732;51.698;4.886;2022-12-29T11:52:34;100514.53;;;7.20;100.00
1480;BME280;732;51.698;4.886;2022-12-29T11:55:06;100515.56;;;7.36;100.00
1480;BME280;732;51.698;4.886;2022-12-29T11:57:45;100502.50;;;7.37;100.00
1480;BME280;732;51.698;4.886;2022-12-29T12:00:19;100494.44;;;7.16;100.00
1480;BME280;732;51.698;4.886;2022-12-29T12:02:53;100498.78;;;7.14;100.00
1480;BME280;732;51.698;4.886;2022-12-29T12:05:33;100504.94;;;7.19;100.00
1480;BME280;732;51.698;4.886;2022-12-29T12:08:11;100482.03;;;6.96;100.00
1480;BME280;732;51.698;4.886;2022-12-29T12:10:53;100513.69;;;7.21;100.00
1480;BME280;732;51.698;4.886;2022-12-29T12:13:29;100515.44;;;7.22;100.00
1480;BME280;732;51.698;4.886;2022-12-29T12:16:07;100502.28;;;7.16;100.00
1480;BME280;732;51.698;4.886;2022-12-29T12:18:45;100486.66;;;7.19;100.00
1480;BME280;732;51.698;4.886;2022-12-29T12:21:29;100519.00;;;7.29;100.00
1480;BME280;732;51.698;4.886;2022-12-29T12:24:35;100518.19;;;7.34;100.00
1480;BME280;732;51.698;4.886;2022-12-29T12:27:14;100501.53;;;7.31;100.00
1480;BME280;732;51.698;4.886;2022-12-29T12:29:51;100526.97;;;7.42;100.00
1480;BME280;732;51.698;4.886;2022-12-29T12:32:24;100496.50;;;7.49;100.00
1480;BME280;732;51.698;4.886;2022-12-29T12:34:57;100512.28;;;7.58;100.00
1480;BME280;732;51.698;4.886;2022-12-29T12:38:09;100519.34;;;7.65;100.00
1480;BME280;732;51.698;4.886;2022-12-29T12:41:08;100273.16;;;6.27;100.00
1480;BME280;732;51.698;4.886;2022-12-29T12:43:49;100517.63;;;7.67;100.00
1480;BME280;732;51.698;4.886;2022-12-29T12:47:02;100498.25;;;7.50;100.00
1480;BME280;732;51.698;4.886;2022-12-29T12:50:15;100526.09;;;7.42;100.00
1480;BME280;732;51.698;4.886;2022-12-29T12:53:03;100525.22;;;7.44;100.00
1480;BME280;732;51.698;4.886;2022-12-29T12:55:49;100554.81;;;7.37;100.00
1480;BME280;732;51.698;4.886;2022-12-29T12:58:31;100546.00;;;7.29;100.00
1480;BME280;732;51.698;4.886;2022-12-29T13:01:18;100538.16;;;7.29;100.00
1480;BME280;732;51.698;4.886;2022-12-29T13:04:08;100547.69;;;7.23;100.00
1480;BME280;732;51.698;4.886;2022-12-29T13:06:49;100510.78;;;6.96;100.00
1480;BME280;732;51.698;4.886;2022-12-29T13:09:38;100538.69;;;6.97;100.00
1480;BME280;732;51.698;4.886;2022-12-29T13:12:27;100544.91;;;7.06;100.00
1480;BME280;732;51.698;4.886;2022-12-29T13:15:11;100549.19;;;7.01;100.00
1480;BME280;732;51.698;4.886;2022-12-29T13:17:49;100534.81;;;6.63;100.00
1480;BME280;732;51.698;4.886;2022-12-29T13:20:29;100546.19;;;6.68;100.00
1480;BME280;732;51.698;4.886;2022-12-29T13:23:08;100530.50;;;6.68;100.00
1480;BME280;732;51.698;4.886;2022-12-29T13:25:44;100529.53;;;6.62;100.00
1480;BME280;732;51.698;4.886;2022-12-29T13:28:25;100558.53;;;6.81;100.00
1480;BME280;732;51.698;4.886;2022-12-29T13:31:04;100536.66;;;6.75;100.00
1480;BME280;732;51.698;4.886;2022-12-29T13:33:41;100534.03;;;6.75;100.00
1480;BME280;732;51.698;4.886;2022-12-29T13:36:23;100573.31;;;6.79;100.00
1480;BME280;732;51.698;4.886;2022-12-29T13:39:02;100569.78;;;6.74;100.00
1480;BME280;732;51.698;4.886;2022-12-29T13:41:39;100550.31;;;6.54;100.00
1480;BME280;732;51.698;4.886;2022-12-29T13:44:18;100572.28;;;6.65;100.00
1480;BME280;732;51.698;4.886;2022-12-29T13:46:49;100577.66;;;6.79;100.00
1480;BME280;732;51.698;4.886;2022-12-29T13:49:20;100583.81;;;6.82;100.00
1480;BME280;732;51.698;4.886;2022-12-29T13:51:55;100549.56;;;6.61;100.00
1480;BME280;732;51.698;4.886;2022-12-29T13:54:37;100578.34;;;6.64;100.00
1480;BME280;732;51.698;4.886;2022-12-29T13:57:20;100577.53;;;6.67;100.00
1480;BME280;732;51.698;4.886;2022-12-29T14:00:01;100575.66;;;6.59;100.00
1480;BME280;732;51.698;4.886;2022-12-29T14:02:50;100581.19;;;6.81;100.00
1480;BME280;732;51.698;4.886;2022-12-29T14:05:31;100582.22;;;6.93;100.00
1480;BME280;732;51.698;4.886;2022-12-29T14:08:01;100576.91;;;6.86;100.00
1480;BME280;732;51.698;4.886;2022-12-29T14:10:34;100582.19;;;6.90;100.00